Time,TemperatureF,DewpointF,PressureIn,WindDirection,WindDirectionDegrees,WindSpeedMPH,WindSpeedGustMPH,Humidity,HourlyPrecipIn,Conditions,Clouds,dailyrainin,SoftwareType,DateUTC
2013-02-15 08:49:00,36.1,21.9,30.45,NNW,333,0.0,1.0,56,0.00,,,0.00,WeatherTracker,2013-02-15 15:49:00,
2013-02-15 08:50:00,36.2,22.0,30.45,NNW,333,0.0,2.0,56,0.00,,,0.00,WeatherTracker,2013-02-15 15:50:00,
2013-02-15 08:55:00,37.2,22.1,30.45,NNW,333,0.0,1.0,54,0.00,,,0.00,WeatherTracker,2013-02-15 15:55:00,
2013-02-15 09:00:00,36.8,21.7,30.45,NNW,334,1.0,3.0,54,0.00,,,0.00,WeatherTracker,2013-02-15 16:00:00,
2013-02-15 09:05:00,37.0,21.9,30.45,NNW,334,1.0,3.0,54,0.00,,,0.00,WeatherTracker,2013-02-15 16:05:00,
2013-02-15 09:10:00,36.8,21.7,30.45,NNW,334,0.0,2.0,54,0.00,,,0.00,WeatherTracker,2013-02-15 16:10:00,
2013-02-15 09:15:00,37.2,21.7,30.45,NNW,334,0.0,2.0,53,0.00,,,0.00,WeatherTracker,2013-02-15 16:15:00,
2013-02-15 09:20:00,37.9,22.3,30.45,NNW,334,0.0,3.0,53,0.00,,,0.00,WeatherTracker,2013-02-15 16:20:00,
2013-02-15 09:25:00,39.0,22.9,30.45,NNW,335,0.0,3.0,52,0.00,,,0.00,WeatherTracker,2013-02-15 16:25:00,
2013-02-15 09:30:00,39.2,22.6,30.45,SSE,147,2.0,4.0,51,0.00,,,0.00,WeatherTracker,2013-02-15 16:30:00,
2013-02-15 09:35:00,39.5,22.9,30.45,SSW,213,0.0,4.0,51,0.00,,,0.00,WeatherTracker,2013-02-15 16:35:00,
2013-02-15 09:40:00,40.1,23.0,30.45,NNE,30,0.0,3.0,50,0.00,,,0.00,WeatherTracker,2013-02-15 16:40:00,
2013-02-15 09:45:00,39.7,22.6,30.45,NNE,25,0.0,3.0,50,0.00,,,0.00,WeatherTracker,2013-02-15 16:45:00,
2013-02-15 09:50:00,40.0,22.9,30.45,ESE,103,1.0,4.0,50,0.00,,,0.00,WeatherTracker,2013-02-15 16:50:00,
2013-02-15 09:55:00,40.4,23.2,30.45,East,82,1.0,4.0,50,0.00,,,0.00,WeatherTracker,2013-02-15 16:55:00,
2013-02-15 10:00:00,40.5,22.9,30.46,ESE,109,0.0,4.0,49,0.00,,,0.00,WeatherTracker,2013-02-15 17:00:00,
2013-02-15 10:05:00,41.4,23.2,30.45,NE,44,1.0,4.0,48,0.00,,,0.00,WeatherTracker,2013-02-15 17:05:00,
2013-02-15 10:10:00,40.6,22.5,30.46,ESE,118,2.0,5.0,48,0.00,,,0.00,WeatherTracker,2013-02-15 17:10:00,
2013-02-15 10:15:00,40.3,22.7,30.46,NW,325,4.0,5.0,49,0.00,,,0.00,WeatherTracker,2013-02-15 17:15:00,
2013-02-15 10:20:00,41.3,23.1,30.46,North,360,0.0,6.0,48,0.00,,,0.00,WeatherTracker,2013-02-15 17:20:00,
2013-02-15 10:25:00,42.8,23.5,30.46,North,5,2.0,6.0,46,0.00,,,0.00,WeatherTracker,2013-02-15 17:25:00,
2013-02-15 10:30:00,42.7,22.9,30.46,North,5,0.0,3.0,45,0.00,,,0.00,WeatherTracker,2013-02-15 17:30:00,
2013-02-15 10:35:00,43.1,22.7,30.45,North,360,1.0,3.0,44,0.00,,,0.00,WeatherTracker,2013-02-15 17:35:00,
2013-02-15 10:41:00,43.2,22.8,30.45,North,360,2.0,3.0,44,0.00,,,0.00,WeatherTracker,2013-02-15 17:41:00,
2013-02-15 10:46:00,42.2,21.9,30.45,ESE,102,1.0,4.0,44,0.00,,,0.00,WeatherTracker,2013-02-15 17:46:00,
2013-02-15 10:51:00,42.9,22.5,30.45,East,92,3.0,4.0,44,0.00,,,0.00,WeatherTracker,2013-02-15 17:51:00,
2013-02-15 10:56:00,43.7,22.7,30.45,ESE,105,1.0,5.0,43,0.00,,,0.00,WeatherTracker,2013-02-15 17:56:00,
2013-02-15 11:01:00,44.8,22.6,30.44,ESE,103,0.0,5.0,41,0.00,,,0.00,WeatherTracker,2013-02-15 18:01:00,
2013-02-15 11:06:00,44.7,22.5,30.44,ENE,65,0.0,3.0,41,0.00,,,0.00,WeatherTracker,2013-02-15 18:06:00,
2013-02-15 11:11:00,45.6,21.5,30.44,East,92,0.0,3.0,38,0.00,,,0.00,WeatherTracker,2013-02-15 18:11:00,
2013-02-15 11:16:00,46.1,21.3,30.44,NW,317,0.0,4.0,37,0.00,,,0.00,WeatherTracker,2013-02-15 18:16:00,
2013-02-15 11:21:00,45.6,21.5,30.44,ESE,108,0.0,4.0,38,0.00,,,0.00,WeatherTracker,2013-02-15 18:21:00,
2013-02-15 11:26:00,45.4,20.7,30.43,SE,124,0.0,4.0,37,0.00,,,0.00,WeatherTracker,2013-02-15 18:26:00,
2013-02-15 11:31:00,46.5,21.0,30.43,SSW,196,3.0,6.0,36,0.00,,,0.00,WeatherTracker,2013-02-15 18:31:00,
2013-02-15 11:36:00,46.9,20.0,30.43,SE,144,2.0,6.0,34,0.00,,,0.00,WeatherTracker,2013-02-15 18:36:00,
2013-02-15 11:41:00,46.7,19.8,30.43,SE,126,2.0,6.0,34,0.00,,,0.00,WeatherTracker,2013-02-15 18:41:00,
2013-02-15 11:46:00,47.4,19.8,30.42,SE,136,4.0,5.0,33,0.00,,,0.00,WeatherTracker,2013-02-15 18:46:00,
2013-02-15 11:51:00,47.0,20.1,30.42,ESE,105,1.0,10.0,34,0.00,,,0.00,WeatherTracker,2013-02-15 18:51:00,
2013-02-15 11:56:00,48.0,21.0,30.42,North,9,1.0,10.0,34,0.00,,,0.00,WeatherTracker,2013-02-15 18:56:00,
2013-02-15 12:01:00,49.0,20.4,30.42,East,94,2.0,6.0,32,0.00,,,0.00,WeatherTracker,2013-02-15 19:01:00,
2013-02-15 12:06:00,47.8,20.1,30.41,East,94,0.0,4.0,33,0.00,,,0.00,WeatherTracker,2013-02-15 19:06:00,
2013-02-15 12:11:00,48.7,20.2,30.41,NW,320,4.0,4.0,32,0.00,,,0.00,WeatherTracker,2013-02-15 19:11:00,
2013-02-15 12:16:00,48.3,19.8,30.41,NE,45,0.0,5.0,32,0.00,,,0.00,WeatherTracker,2013-02-15 19:16:00,
2013-02-15 12:21:00,49.2,20.6,30.40,SSE,159,1.0,5.0,32,0.00,,,0.00,WeatherTracker,2013-02-15 19:21:00,
2013-02-15 12:26:00,50.7,19.6,30.40,WSW,252,0.0,4.0,29,0.00,,,0.00,WeatherTracker,2013-02-15 19:26:00,
2013-02-15 12:31:00,50.8,18.0,30.39,ESE,104,5.0,5.0,27,0.00,,,0.00,WeatherTracker,2013-02-15 19:31:00,
2013-02-15 12:36:00,50.8,18.9,30.39,South,171,1.0,7.0,28,0.00,,,0.00,WeatherTracker,2013-02-15 19:36:00,
2013-02-15 12:41:00,51.0,18.2,30.39,SE,131,3.0,7.0,27,0.00,,,0.00,WeatherTracker,2013-02-15 19:41:00,
2013-02-15 12:47:00,53.1,13.1,30.38,NNW,341,4.0,11.0,20,0.00,,,0.00,WeatherTracker,2013-02-15 19:47:00,
2013-02-15 12:52:00,54.4,14.2,30.38,NNW,339,4.0,15.0,20,0.00,,,0.00,WeatherTracker,2013-02-15 19:52:00,
2013-02-15 12:57:00,54.2,14.0,30.37,WNW,292,5.0,15.0,20,0.00,,,0.00,WeatherTracker,2013-02-15 19:57:00,
2013-02-15 13:02:00,53.3,13.3,30.37,SW,221,2.0,11.0,20,0.00,,,0.00,WeatherTracker,2013-02-15 20:02:00,
2013-02-15 13:07:00,53.0,13.0,30.37,ESE,119,2.0,11.0,20,0.00,,,0.00,WeatherTracker,2013-02-15 20:07:00,
2013-02-15 13:12:00,53.6,14.6,30.36,WSW,244,4.0,11.0,21,0.00,,,0.00,WeatherTracker,2013-02-15 20:12:00,
2013-02-15 13:17:00,53.8,13.7,30.36,ENE,67,3.0,13.0,20,0.00,,,0.00,WeatherTracker,2013-02-15 20:17:00,
2013-02-15 13:22:00,53.6,13.5,30.36,ENE,74,3.0,13.0,20,0.00,,,0.00,WeatherTracker,2013-02-15 20:22:00,
2013-02-15 13:27:00,53.6,13.5,30.35,NNW,338,5.0,10.0,20,0.00,,,0.00,WeatherTracker,2013-02-15 20:27:00,
2013-02-15 13:32:00,54.7,14.4,30.35,East,94,5.0,11.0,20,0.00,,,0.00,WeatherTracker,2013-02-15 20:32:00,
2013-02-15 13:37:00,54.4,14.2,30.34,NNE,30,4.0,15.0,20,0.00,,,0.00,WeatherTracker,2013-02-15 20:37:00,
2013-02-15 13:42:00,54.5,13.1,30.34,South,184,3.0,15.0,19,0.00,,,0.00,WeatherTracker,2013-02-15 20:42:00,
2013-02-15 13:47:00,54.5,11.9,30.34,WNW,284,2.0,12.0,18,0.00,,,0.00,WeatherTracker,2013-02-15 20:47:00,
2013-02-15 13:52:00,54.2,11.6,30.34,NNE,32,3.0,14.0,18,0.00,,,0.00,WeatherTracker,2013-02-15 20:52:00,
2013-02-15 13:57:00,55.4,10.0,30.34,NW,320,6.0,14.0,16,0.00,,,0.00,WeatherTracker,2013-02-15 20:57:00,
2013-02-15 14:02:00,55.7,8.8,30.33,West,261,5.0,14.0,15,0.00,,,0.00,WeatherTracker,2013-02-15 21:02:00,
2013-02-15 14:07:00,55.0,6.7,30.33,NW,320,3.0,14.0,14,0.00,,,0.00,WeatherTracker,2013-02-15 21:07:00,
2013-02-15 14:12:00,54.6,6.4,30.33,ENE,76,2.0,11.0,14,0.00,,,0.00,WeatherTracker,2013-02-15 21:12:00,
2013-02-15 14:17:00,54.9,5.0,30.34,SW,232,3.0,14.0,13,0.00,,,0.00,WeatherTracker,2013-02-15 21:17:00,
2013-02-15 14:22:00,55.6,5.6,30.34,SE,135,4.0,14.0,13,0.00,,,0.00,WeatherTracker,2013-02-15 21:22:00,
2013-02-15 14:28:00,55.2,6.9,30.33,ENE,71,3.0,14.0,14,0.00,,,0.00,WeatherTracker,2013-02-15 21:28:00,
2013-02-15 14:33:00,54.6,7.9,30.33,WSW,244,5.0,18.0,15,0.00,,,0.00,WeatherTracker,2013-02-15 21:33:00,
2013-02-15 14:38:00,54.8,8.1,30.33,SE,138,5.0,18.0,15,0.00,,,0.00,WeatherTracker,2013-02-15 21:38:00,
2013-02-15 14:43:00,55.5,7.1,30.33,NNE,25,2.0,18.0,14,0.00,,,0.00,WeatherTracker,2013-02-15 21:43:00,
2013-02-15 14:48:00,55.4,7.0,30.33,WSW,237,2.0,12.0,14,0.00,,,0.00,WeatherTracker,2013-02-15 21:48:00,
2013-02-15 14:53:00,55.1,6.8,30.34,WSW,240,3.0,12.0,14,0.00,,,0.00,WeatherTracker,2013-02-15 21:53:00,
2013-02-15 14:58:00,54.8,4.9,30.34,South,171,3.0,12.0,13,0.00,,,0.00,WeatherTracker,2013-02-15 21:58:00,
2013-02-15 15:03:00,54.6,4.8,30.34,NW,317,2.0,10.0,13,0.00,,,0.00,WeatherTracker,2013-02-15 22:03:00,
2013-02-15 15:08:00,55.0,6.7,30.34,North,5,3.0,12.0,14,0.00,,,0.00,WeatherTracker,2013-02-15 22:08:00,
2013-02-15 15:13:00,54.8,6.5,30.34,North,355,3.0,12.0,14,0.00,,,0.00,WeatherTracker,2013-02-15 22:13:00,
2013-02-15 15:18:00,54.2,6.1,30.34,East,83,3.0,11.0,14,0.00,,,0.00,WeatherTracker,2013-02-15 22:18:00,
2013-02-15 15:23:00,54.2,6.1,30.34,North,10,3.0,11.0,14,0.00,,,0.00,WeatherTracker,2013-02-15 22:23:00,
2013-02-15 15:28:00,54.6,6.4,30.34,East,94,3.0,10.0,14,0.00,,,0.00,WeatherTracker,2013-02-15 22:28:00,
2013-02-15 15:33:00,55.0,6.7,30.34,SW,215,3.0,10.0,14,0.00,,,0.00,WeatherTracker,2013-02-15 22:33:00,
2013-02-15 15:38:00,54.8,4.9,30.34,WSW,251,3.0,7.0,13,0.00,,,0.00,WeatherTracker,2013-02-15 22:38:00,
2013-02-15 15:43:00,54.3,6.1,30.35,SE,135,3.0,11.0,14,0.00,,,0.00,WeatherTracker,2013-02-15 22:43:00,
2013-02-15 15:48:00,54.2,6.1,30.34,East,101,2.0,11.0,14,0.00,,,0.00,WeatherTracker,2013-02-15 22:48:00,
2013-02-15 15:53:00,54.1,6.0,30.34,South,178,2.0,11.0,14,0.00,,,0.00,WeatherTracker,2013-02-15 22:53:00,
2013-02-15 15:58:00,54.0,7.4,30.34,ENE,70,3.0,9.0,15,0.00,,,0.00,WeatherTracker,2013-02-15 22:58:00,
2013-02-15 16:03:00,54.1,7.5,30.34,WSW,245,2.0,9.0,15,0.00,,,0.00,WeatherTracker,2013-02-15 23:03:00,
2013-02-15 16:08:00,53.7,7.2,30.34,NNE,13,7.0,8.0,15,0.00,,,0.00,WeatherTracker,2013-02-15 23:08:00,
2013-02-15 16:13:00,53.2,8.2,30.34,NNE,33,3.0,8.0,16,0.00,,,0.00,WeatherTracker,2013-02-15 23:13:00,
2013-02-15 16:18:00,53.2,8.2,30.35,West,280,4.0,7.0,16,0.00,,,0.00,WeatherTracker,2013-02-15 23:18:00,
2013-02-15 16:23:00,53.1,6.7,30.35,NE,50,2.0,9.0,15,0.00,,,0.00,WeatherTracker,2013-02-15 23:23:00,
2013-02-15 16:28:00,52.9,8.0,30.35,ESE,116,2.0,9.0,16,0.00,,,0.00,WeatherTracker,2013-02-15 23:28:00,
2013-02-15 16:33:00,52.6,7.7,30.35,WSW,252,1.0,9.0,16,0.00,,,0.00,WeatherTracker,2013-02-15 23:33:00,
2013-02-15 16:39:00,52.6,7.7,30.35,NE,51,2.0,8.0,16,0.00,,,0.00,WeatherTracker,2013-02-15 23:39:00,
2013-02-15 16:44:00,52.6,7.7,30.36,East,80,5.0,8.0,16,0.00,,,0.00,WeatherTracker,2013-02-15 23:44:00,
2013-02-15 16:49:00,52.5,7.6,30.36,NNE,32,2.0,7.0,16,0.00,,,0.00,WeatherTracker,2013-02-15 23:49:00,
2013-02-15 16:54:00,52.2,7.4,30.36,West,271,3.0,10.0,16,0.00,,,0.00,WeatherTracker,2013-02-15 23:54:00,
2013-02-15 16:59:00,52.2,7.4,30.36,SW,217,3.0,11.0,16,0.00,,,0.00,WeatherTracker,2013-02-15 23:59:00,
2013-02-15 17:04:00,51.9,7.1,30.36,SE,146,2.0,11.0,16,0.00,,,0.00,WeatherTracker,2013-02-16 00:04:00,
2013-02-15 17:09:00,51.8,7.1,30.36,NE,38,3.0,11.0,16,0.00,,,0.00,WeatherTracker,2013-02-16 00:09:00,
2013-02-15 17:14:00,51.6,6.9,30.37,East,95,2.0,11.0,16,0.00,,,0.00,WeatherTracker,2013-02-16 00:14:00,
2013-02-15 17:19:00,51.4,8.1,30.37,ESE,112,3.0,7.0,17,0.00,,,0.00,WeatherTracker,2013-02-16 00:19:00,
2013-02-15 17:24:00,51.3,10.5,30.37,NW,320,2.0,5.0,19,0.00,,,0.00,WeatherTracker,2013-02-16 00:24:00,
2013-02-15 17:29:00,51.1,10.3,30.37,ESE,120,1.0,5.0,19,0.00,,,0.00,WeatherTracker,2013-02-16 00:29:00,
2013-02-15 17:34:00,50.7,11.1,30.37,SE,134,0.0,6.0,20,0.00,,,0.00,WeatherTracker,2013-02-16 00:34:00,
2013-02-15 17:39:00,50.5,9.8,30.37,NE,38,2.0,6.0,19,0.00,,,0.00,WeatherTracker,2013-02-16 00:39:00,
2013-02-15 17:44:00,50.3,9.6,30.37,North,355,0.0,4.0,19,0.00,,,0.00,WeatherTracker,2013-02-16 00:44:00,
2013-02-15 17:49:00,50.0,9.4,30.37,East,96,0.0,4.0,19,0.00,,,0.00,WeatherTracker,2013-02-16 00:49:00,
2013-02-15 17:54:00,49.7,9.1,30.37,SSE,149,0.0,4.0,19,0.00,,,0.00,WeatherTracker,2013-02-16 00:54:00,
2013-02-15 17:59:00,49.4,8.9,30.38,NE,46,0.0,3.0,19,0.00,,,0.00,WeatherTracker,2013-02-16 00:59:00,
2013-02-15 18:04:00,49.3,8.8,30.38,NE,39,0.0,4.0,19,0.00,,,0.00,WeatherTracker,2013-02-16 01:04:00,
2013-02-15 18:09:00,49.2,7.5,30.38,SSW,206,0.0,6.0,18,0.00,,,0.00,WeatherTracker,2013-02-16 01:09:00,
2013-02-15 18:14:00,49.0,7.4,30.38,WNW,286,0.0,6.0,18,0.00,,,0.00,WeatherTracker,2013-02-16 01:14:00,
2013-02-15 18:19:00,48.7,8.3,30.38,NNW,335,0.0,4.0,19,0.00,,,0.00,WeatherTracker,2013-02-16 01:19:00,
2013-02-15 18:24:00,48.4,8.1,30.38,WSW,246,1.0,4.0,19,0.00,,,0.00,WeatherTracker,2013-02-16 01:24:00,
2013-02-15 18:29:00,48.2,9.0,30.38,SW,222,0.0,4.0,20,0.00,,,0.00,WeatherTracker,2013-02-16 01:29:00,
2013-02-15 18:34:00,47.9,8.8,30.39,SE,146,1.0,2.0,20,0.00,,,0.00,WeatherTracker,2013-02-16 01:34:00,
2013-02-15 18:39:00,48.0,8.9,30.39,NNE,18,0.0,5.0,20,0.00,,,0.00,WeatherTracker,2013-02-16 01:39:00,
2013-02-15 18:44:00,47.8,8.7,30.39,SSW,207,0.0,5.0,20,0.00,,,0.00,WeatherTracker,2013-02-16 01:44:00,
2013-02-15 18:49:00,47.6,8.5,30.39,East,93,0.0,4.0,20,0.00,,,0.00,WeatherTracker,2013-02-16 01:49:00,
2013-02-15 18:54:00,47.3,8.3,30.40,West,259,1.0,4.0,20,0.00,,,0.00,WeatherTracker,2013-02-16 01:54:00,
2013-02-15 18:59:00,47.1,8.1,30.40,WSW,258,0.0,4.0,20,0.00,,,0.00,WeatherTracker,2013-02-16 01:59:00,
2013-02-15 19:04:00,46.8,7.9,30.40,North,355,1.0,3.0,20,0.00,,,0.00,WeatherTracker,2013-02-16 02:04:00,
2013-02-15 19:09:00,46.4,7.5,30.41,West,277,2.0,2.0,20,0.00,,,0.00,WeatherTracker,2013-02-16 02:09:00,
2013-02-15 19:15:00,46.2,8.4,30.41,WSW,251,0.0,3.0,21,0.00,,,0.00,WeatherTracker,2013-02-16 02:15:00,
2013-02-15 19:20:00,45.9,8.2,30.41,West,281,0.0,5.0,21,0.00,,,0.00,WeatherTracker,2013-02-16 02:20:00,
2013-02-15 19:25:00,45.6,7.9,30.41,West,265,0.0,5.0,21,0.00,,,0.00,WeatherTracker,2013-02-16 02:25:00,
2013-02-15 19:30:00,45.4,7.8,30.41,WNW,291,0.0,4.0,21,0.00,,,0.00,WeatherTracker,2013-02-16 02:30:00,
2013-02-15 19:35:00,45.0,8.5,30.42,SW,216,0.0,5.0,22,0.00,,,0.00,WeatherTracker,2013-02-16 02:35:00,
2013-02-15 19:40:00,44.5,8.1,30.42,SW,216,0.0,5.0,22,0.00,,,0.00,WeatherTracker,2013-02-16 02:40:00,
2013-02-15 19:45:00,44.0,8.6,30.42,WSW,248,2.0,2.0,23,0.00,,,0.00,WeatherTracker,2013-02-16 02:45:00,
2013-02-15 19:50:00,43.7,8.4,30.42,WNW,288,1.0,4.0,23,0.00,,,0.00,WeatherTracker,2013-02-16 02:50:00,
2013-02-15 19:55:00,43.5,8.2,30.42,NW,325,1.0,5.0,23,0.00,,,0.00,WeatherTracker,2013-02-16 02:55:00,
2013-02-15 20:00:00,43.2,7.9,30.43,WNW,302,1.0,5.0,23,0.00,,,0.00,WeatherTracker,2013-02-16 03:00:00,
2013-02-15 20:05:00,43.0,8.7,30.43,WNW,298,0.0,2.0,24,0.00,,,0.00,WeatherTracker,2013-02-16 03:05:00,
2013-02-15 20:10:00,42.9,8.6,30.43,WNW,303,1.0,2.0,24,0.00,,,0.00,WeatherTracker,2013-02-16 03:10:00,
2013-02-15 20:15:00,42.6,8.4,30.43,WNW,303,0.0,2.0,24,0.00,,,0.00,WeatherTracker,2013-02-16 03:15:00,
2013-02-15 20:20:00,42.7,8.5,30.44,NNW,329,0.0,3.0,24,0.00,,,0.00,WeatherTracker,2013-02-16 03:20:00,
2013-02-15 20:25:00,42.4,9.1,30.44,NNW,329,0.0,3.0,25,0.00,,,0.00,WeatherTracker,2013-02-16 03:25:00,
2013-02-15 20:30:00,42.5,9.2,30.44,WNW,290,0.0,3.0,25,0.00,,,0.00,WeatherTracker,2013-02-16 03:30:00,
2013-02-15 20:35:00,42.7,9.4,30.45,West,277,0.0,3.0,25,0.00,,,0.00,WeatherTracker,2013-02-16 03:35:00,
2013-02-15 20:40:00,42.3,9.0,30.45,NW,320,0.0,3.0,25,0.00,,,0.00,WeatherTracker,2013-02-16 03:40:00,
2013-02-15 20:45:00,42.2,8.9,30.45,NW,320,0.0,3.0,25,0.00,,,0.00,WeatherTracker,2013-02-16 03:45:00,
2013-02-15 20:50:00,42.4,9.1,30.45,NW,320,0.0,0.0,25,0.00,,,0.00,WeatherTracker,2013-02-16 03:50:00,
2013-02-15 20:55:00,42.0,8.8,30.45,NW,308,0.0,4.0,25,0.00,,,0.00,WeatherTracker,2013-02-16 03:55:00,
2013-02-15 21:00:00,41.6,9.3,30.46,NW,308,0.0,4.0,26,0.00,,,0.00,WeatherTracker,2013-02-16 04:00:00,
2013-02-15 21:05:00,41.8,9.5,30.46,NW,322,0.0,2.0,26,0.00,,,0.00,WeatherTracker,2013-02-16 04:05:00,
2013-02-15 21:10:00,41.7,9.4,30.47,West,274,0.0,1.0,26,0.00,,,0.00,WeatherTracker,2013-02-16 04:10:00,
2013-02-15 21:15:00,41.5,9.2,30.47,West,274,0.0,3.0,26,0.00,,,0.00,WeatherTracker,2013-02-16 04:15:00,
2013-02-15 21:21:00,41.0,9.6,30.48,NW,321,0.0,3.0,27,0.00,,,0.00,WeatherTracker,2013-02-16 04:21:00,
2013-02-15 21:26:00,40.9,9.5,30.48,WNW,297,0.0,3.0,27,0.00,,,0.00,WeatherTracker,2013-02-16 04:26:00,
2013-02-15 21:31:00,41.3,9.0,30.49,WNW,294,0.0,3.0,26,0.00,,,0.00,WeatherTracker,2013-02-16 04:31:00,
2013-02-15 21:36:00,41.2,8.9,30.49,WNW,294,0.0,3.0,26,0.00,,,0.00,WeatherTracker,2013-02-16 04:36:00,
2013-02-15 21:41:00,41.5,10.0,30.49,NW,319,2.0,5.0,27,0.00,,,0.00,WeatherTracker,2013-02-16 04:41:00,
2013-02-15 21:46:00,41.3,9.9,30.50,NNW,332,0.0,5.0,27,0.00,,,0.00,WeatherTracker,2013-02-16 04:46:00,
2013-02-15 21:51:00,41.2,10.6,30.50,NNW,332,1.0,3.0,28,0.00,,,0.00,WeatherTracker,2013-02-16 04:51:00,
2013-02-15 21:56:00,41.1,10.5,30.50,NW,320,0.0,2.0,28,0.00,,,0.00,WeatherTracker,2013-02-16 04:56:00,
2013-02-15 22:00:00,41.0,10.4,30.50,NW,320,0.0,2.0,28,0.00,,,0.00,WeatherTracker,2013-02-16 05:00:00,
2013-02-15 22:05:00,40.9,10.3,30.50,NW,320,0.0,2.0,28,0.00,,,0.00,WeatherTracker,2013-02-16 05:05:00,
2013-02-15 22:11:00,40.7,10.2,30.50,NW,320,0.0,2.0,28,0.00,,,0.00,WeatherTracker,2013-02-16 05:11:00,
2013-02-15 22:16:00,40.5,10.8,30.50,NW,320,0.0,1.0,29,0.00,,,0.00,WeatherTracker,2013-02-16 05:16:00,
2013-02-15 22:21:00,39.9,10.3,30.50,WNW,295,2.0,3.0,29,0.00,,,0.00,WeatherTracker,2013-02-16 05:21:00,
2013-02-15 22:23:00,40.0,11.1,30.50,WSW,249,0.0,3.0,30,0.00,,,0.00,WeatherTracker,2013-02-16 05:23:00,
2013-02-15 22:28:00,40.7,10.9,30.50,NW,319,0.0,3.0,29,0.00,,,0.00,WeatherTracker,2013-02-16 05:28:00,
2013-02-15 22:33:00,40.6,10.9,30.50,NW,313,0.0,3.0,29,0.00,,,0.00,WeatherTracker,2013-02-16 05:33:00,
2013-02-15 22:38:00,40.1,10.4,30.51,NW,313,0.0,2.0,29,0.00,,,0.00,WeatherTracker,2013-02-16 05:38:00,
2013-02-15 22:43:00,40.0,10.3,30.50,West,265,0.0,3.0,29,0.00,,,0.00,WeatherTracker,2013-02-16 05:43:00,
2013-02-15 22:48:00,40.0,10.3,30.50,WSW,242,0.0,3.0,29,0.00,,,0.00,WeatherTracker,2013-02-16 05:48:00,
2013-02-15 22:53:00,39.8,10.9,30.51,WSW,254,0.0,2.0,30,0.00,,,0.00,WeatherTracker,2013-02-16 05:53:00,
2013-02-15 22:58:00,39.8,10.9,30.51,WSW,238,0.0,2.0,30,0.00,,,0.00,WeatherTracker,2013-02-16 05:58:00,
2013-02-15 23:03:00,39.5,11.4,30.51,WSW,247,0.0,2.0,31,0.00,,,0.00,WeatherTracker,2013-02-16 06:03:00,
2013-02-15 23:08:00,39.4,11.3,30.51,SW,232,0.0,2.0,31,0.00,,,0.00,WeatherTracker,2013-02-16 06:08:00,
2013-02-15 23:13:00,39.0,11.0,30.51,West,275,1.0,2.0,31,0.00,,,0.00,WeatherTracker,2013-02-16 06:13:00,
2013-02-15 23:18:00,39.0,11.0,30.51,WNW,294,0.0,3.0,31,0.00,,,0.00,WeatherTracker,2013-02-16 06:18:00,
2013-02-15 23:23:00,38.8,11.5,30.51,WNW,294,0.0,3.0,32,0.00,,,0.00,WeatherTracker,2013-02-16 06:23:00,
2013-02-15 23:28:00,38.7,11.4,30.51,WNW,294,0.0,2.0,32,0.00,,,0.00,WeatherTracker,2013-02-16 06:28:00,
2013-02-15 23:33:00,38.7,11.4,30.51,WNW,294,0.0,0.0,32,0.00,,,0.00,WeatherTracker,2013-02-16 06:33:00,
2013-02-15 23:39:00,37.9,11.4,30.51,WNW,294,0.0,0.0,33,0.00,,,0.00,WeatherTracker,2013-02-16 06:39:00,
2013-02-15 23:44:00,37.5,11.0,30.51,WNW,294,0.0,0.0,33,0.00,,,0.00,WeatherTracker,2013-02-16 06:44:00,
2013-02-15 23:49:00,37.3,11.5,30.51,WNW,294,0.0,1.0,34,0.00,,,0.00,WeatherTracker,2013-02-16 06:49:00,
2013-02-15 23:54:00,37.1,11.4,30.51,WNW,294,0.0,1.0,34,0.00,,,0.00,WeatherTracker,2013-02-16 06:54:00,
2013-02-15 23:59:00,36.8,11.1,30.51,WNW,294,0.0,1.0,34,0.00,,,0.00,WeatherTracker,2013-02-16 06:59:00,